Time;durP1;ratioP1;P1;durP2;ratioP2;P2;SDS_P1;SDS_P2;PMS_P1;PMS_P2;Temp;Humidity;BMP_temperature;BMP_pressure;BME280_temperature;BME280_humidity;BME280_pressure;Samples;Min_cycle;Max_cycle;Signal;HPM_P1;HPM_P2
2022/07/13 00:00:47;;;;;;;;;;;;;;;24.16;68.59;98586.63;5121670;28;19924;-60
2022/07/13 00:03:14;;;;;;;;;;;;;;;24.48;66.54;98579.53;5121035;28;19975;-60
2022/07/13 00:05:41;;;;;;;;;;;;;;;24.56;65.36;98592.31;5117971;28;19959;-59
2022/07/13 00:08:08;;;;;;;;;;;;;;;24.41;65.31;98598.44;5117908;28;19924;-60
2022/07/13 00:10:34;;;;;;;;;;;;;;;24.54;64.90;98586.38;5121223;28;19975;-60
2022/07/13 00:13:00;;;;;;;;;;;;;;;24.70;63.50;98576.41;5114322;28;19924;-61
2022/07/13 00:15:27;;;;;;;;;;;;;;;24.79;63.13;98589.19;5117827;28;19935;-60
2022/07/13 00:17:53;;;;;;;;;;;;;;;24.84;62.49;98586.25;5099909;28;19989;-60
2022/07/13 00:20:19;;;;;;;;;;;;;;;24.68;62.71;98586.88;5119119;28;19969;-60
2022/07/13 00:22:47;;;;;;;;;;;;;;;24.42;63.75;98589.09;5121469;28;19958;-61
2022/07/13 00:25:13;;;;;;;;;;;;;;;24.51;63.68;98573.41;5121070;28;19970;-60
2022/07/13 00:27:40;;;;;;;;;;;;;;;24.60;63.17;98576.06;5118226;28;19924;-60
2022/07/13 00:30:07;;;;;;;;;;;;;;;24.66;62.69;98574.69;5118002;28;19983;-60
2022/07/13 00:32:33;;;;;;;;;;;;;;;24.45;62.57;98569.28;5121046;28;19945;-60
2022/07/13 00:34:59;;;;;;;;;;;;;;;24.30;63.03;98580.06;5121456;28;19920;-60
2022/07/13 00:37:26;;;;;;;;;;;;;;;24.21;63.91;98574.69;5119269;28;20002;-61
2022/07/13 00:39:53;;;;;;;;;;;;;;;24.36;63.15;98574.03;5118300;28;19928;-59
2022/07/13 00:42:20;;;;;;;;;;;;;;;24.55;62.58;98568.88;5129595;27;19957;-60
2022/07/13 00:44:46;;;;;;;;;;;;;;;24.71;61.65;98575.28;5121749;28;19950;-62
2022/07/13 00:47:13;;;;;;;;;;;;;;;24.73;61.47;98581.19;5121405;28;19923;-60
2022/07/13 00:49:40;;;;;;;;;;;;;;;24.73;61.25;98581.19;5118092;28;19998;-60
2022/07/13 00:52:06;;;;;;;;;;;;;;;24.75;61.19;98574.59;5118123;28;19924;-60
2022/07/13 00:54:33;;;;;;;;;;;;;;;24.73;61.45;98573.00;5121033;28;19924;-60
2022/07/13 00:57:02;;;;;;;;;;;;;;;24.68;61.57;98584.16;5123527;28;19971;-60
2022/07/13 00:59:28;;;;;;;;;;;;;;;24.70;61.64;98575.59;5122719;28;19949;-59
2022/07/13 01:01:55;;;;;;;;;;;;;;;24.72;61.56;98576.06;5121309;28;19920;-62
2022/07/13 01:04:23;;;;;;;;;;;;;;;24.76;61.34;98576.19;5122582;28;19976;-60
2022/07/13 01:06:50;;;;;;;;;;;;;;;24.51;62.48;98580.81;5124559;28;19930;-60
2022/07/13 01:09:17;;;;;;;;;;;;;;;24.00;65.16;98587.53;5123880;28;19928;-60
2022/07/13 01:11:43;;;;;;;;;;;;;;;23.97;66.12;98583.53;5123288;27;19924;-60
2022/07/13 01:14:13;;;;;;;;;;;;;;;24.13;66.06;98581.84;5127559;27;21479;-60
2022/07/13 01:16:40;;;;;;;;;;;;;;;24.37;64.86;98581.09;5124791;28;19920;-60
2022/07/13 01:19:07;;;;;;;;;;;;;;;24.51;64.07;98581.59;5106537;28;19923;-60
2022/07/13 01:21:36;;;;;;;;;;;;;;;24.52;64.31;98577.75;5121500;28;19924;-61
2022/07/13 01:24:04;;;;;;;;;;;;;;;24.52;64.59;98579.66;5121002;28;19979;-60
2022/07/13 01:26:30;;;;;;;;;;;;;;;24.51;64.90;98573.41;5123529;28;19924;-60
2022/07/13 01:28:57;;;;;;;;;;;;;;;24.45;65.29;98577.47;5124558;28;19959;-60
2022/07/13 01:31:32;;;;;;;;;;;;;;;24.14;66.97;98582.59;5122698;28;19920;-61
2022/07/13 01:33:59;;;;;;;;;;;;;;;23.90;68.63;98587.94;5120859;28;19920;-60
2022/07/13 01:36:25;;;;;;;;;;;;;;;24.05;68.19;98581.84;5122583;28;19936;-60
2022/07/13 01:38:52;;;;;;;;;;;;;;;24.25;67.32;98588.47;5124223;28;19928;-60
2022/07/13 01:41:20;;;;;;;;;;;;;;;24.29;67.02;98583.94;5123178;28;19923;-61
2022/07/13 01:43:47;;;;;;;;;;;;;;;24.30;67.47;98591.78;5130719;27;19951;-60
2022/07/13 01:46:13;;;;;;;;;;;;;;;24.36;67.42;98587.69;5120689;28;19924;-60
2022/07/13 01:48:40;;;;;;;;;;;;;;;24.30;67.32;98588.25;5124004;28;19935;-60
2022/07/13 01:51:06;;;;;;;;;;;;;;;24.18;68.10;98594.47;5123910;28;19924;-59
2022/07/13 01:53:32;;;;;;;;;;;;;;;24.17;68.28;98588.19;5120876;28;19961;-60
2022/07/13 01:55:59;;;;;;;;;;;;;;;24.18;68.32;98591.72;5120243;28;19924;-60
2022/07/13 01:58:27;;;;;;;;;;;;;;;24.21;68.41;98588.34;5122106;28;19966;-60
2022/07/13 02:00:53;;;;;;;;;;;;;;;24.24;67.98;98579.47;5123621;28;19930;-60
2022/07/13 02:03:20;;;;;;;;;;;;;;;23.84;69.84;98579.16;5122489;28;19942;-60
2022/07/13 02:05:46;;;;;;;;;;;;;;;23.57;72.08;98580.50;5120064;28;19947;-60
2022/07/13 02:08:13;;;;;;;;;;;;;;;23.69;72.61;98578.94;5119129;28;19924;-61
2022/07/13 02:10:40;;;;;;;;;;;;;;;23.81;71.44;98584.47;5123536;28;20408;-60
2022/07/13 02:13:07;;;;;;;;;;;;;;;23.85;71.17;98577.22;5133696;27;19984;-61
2022/07/13 02:15:35;;;;;;;;;;;;;;;23.72;71.87;98570.91;5120427;28;19951;-59
2022/07/13 02:18:01;;;;;;;;;;;;;;;23.74;71.52;98579.53;5120172;28;19955;-60
2022/07/13 02:20:28;;;;;;;;;;;;;;;23.64;72.38;98575.28;5122171;28;19960;-60
2022/07/13 02:22:54;;;;;;;;;;;;;;;23.59;71.59;98575.50;5123396;28;19979;-60
2022/07/13 02:25:21;;;;;;;;;;;;;;;23.67;71.84;98580.06;5122092;28;19949;-60
2022/07/13 02:27:47;;;;;;;;;;;;;;;23.72;71.07;98581.03;5119914;28;19935;-60
2022/07/13 02:30:14;;;;;;;;;;;;;;;23.64;70.59;98583.47;5120043;28;19927;-60
2022/07/13 02:32:42;;;;;;;;;;;;;;;23.70;70.65;98578.63;5123243;28;19923;-59
2022/07/13 02:35:09;;;;;;;;;;;;;;;23.79;69.90;98573.91;5123083;28;20339;-60
2022/07/13 02:37:36;;;;;;;;;;;;;;;23.82;69.22;98578.69;5119754;28;19935;-60
2022/07/13 02:40:02;;;;;;;;;;;;;;;23.78;69.31;98576.97;5119439;28;19928;-60
2022/07/13 02:42:29;;;;;;;;;;;;;;;23.71;69.27;98579.41;5132103;27;19931;-60
2022/07/13 02:44:55;;;;;;;;;;;;;;;23.73;69.36;98579.91;5122978;28;19990;-60
2022/07/13 02:47:22;;;;;;;;;;;;;;;23.72;69.07;98578.28;5121474;28;19924;-60
2022/07/13 02:49:49;;;;;;;;;;;;;;;23.69;68.84;98571.56;5119140;28;19973;-59
2022/07/13 02:52:16;;;;;;;;;;;;;;;23.69;68.54;98570.78;5119770;28;19951;-59
2022/07/13 02:54:42;;;;;;;;;;;;;;;23.71;67.81;98576.69;5122817;28;20012;-60
2022/07/13 02:57:09;;;;;;;;;;;;;;;23.59;68.03;98589.13;5122606;28;19934;-60
2022/07/13 02:59:36;;;;;;;;;;;;;;;23.55;68.21;98584.69;5119373;28;19920;-60
2022/07/13 03:02:02;;;;;;;;;;;;;;;23.52;68.07;98585.34;5119202;28;19988;-60
2022/07/13 03:04:29;;;;;;;;;;;;;;;23.49;68.16;98586.78;5121279;28;19946;-60
2022/07/13 03:06:56;;;;;;;;;;;;;;;23.48;67.96;98577.03;5122308;28;19923;-60
2022/07/13 03:09:23;;;;;;;;;;;;;;;23.46;67.75;98578.47;5120701;28;20419;-60
2022/07/13 03:11:50;;;;;;;;;;;;;;;23.58;67.00;98581.28;5122574;27;19932;-60
2022/07/13 03:14:16;;;;;;;;;;;;;;;23.50;66.99;98573.94;5125233;27;19970;-60
2022/07/13 03:16:43;;;;;;;;;;;;;;;23.38;67.58;98571.13;5122407;28;19927;-60
2022/07/13 03:19:09;;;;;;;;;;;;;;;23.45;67.37;98582.34;5121978;28;19967;-60
2022/07/13 03:21:35;;;;;;;;;;;;;;;23.44;67.06;98578.00;5100899;28;19924;-59
2022/07/13 03:24:03;;;;;;;;;;;;;;;23.51;66.83;98590.00;5118498;28;19970;-60
2022/07/13 03:26:30;;;;;;;;;;;;;;;23.56;66.34;98578.06;5121145;28;19931;-60
2022/07/13 03:28:56;;;;;;;;;;;;;;;23.50;66.21;98591.13;5122183;28;19924;-59
2022/07/13 03:31:23;;;;;;;;;;;;;;;23.51;66.33;98598.19;5120460;28;19932;-60
2022/07/13 03:33:49;;;;;;;;;;;;;;;23.50;66.05;98588.38;5118589;28;19962;-60
2022/07/13 03:36:15;;;;;;;;;;;;;;;23.52;65.88;98599.75;5118881;28;20018;-60
2022/07/13 03:38:42;;;;;;;;;;;;;;;23.47;65.83;98585.53;5122212;28;19920;-60
2022/07/13 03:41:09;;;;;;;;;;;;;;;23.47;65.93;98586.31;5122242;28;19924;-60
2022/07/13 03:43:36;;;;;;;;;;;;;;;23.32;66.58;98586.88;5128916;27;19924;-59
2022/07/13 03:46:02;;;;;;;;;;;;;;;23.30;66.70;98591.06;5118650;28;19924;-60
2022/07/13 03:48:28;;;;;;;;;;;;;;;23.19;67.39;98585.19;5121118;28;19924;-60
2022/07/13 03:50:55;;;;;;;;;;;;;;;23.25;67.41;98588.50;5122112;28;19932;-60
2022/07/13 03:53:21;;;;;;;;;;;;;;;23.25;67.34;98588.50;5120604;28;19955;-59
2022/07/13 03:55:47;;;;;;;;;;;;;;;23.20;68.10;98591.44;5118392;28;19952;-61
2022/07/13 03:58:15;;;;;;;;;;;;;;;23.22;67.67;98576.34;5100246;28;19935;-60
2022/07/13 04:00:42;;;;;;;;;;;;;;;23.37;67.24;98574.97;5121635;28;19950;-59
2022/07/13 04:03:08;;;;;;;;;;;;;;;23.25;67.40;98575.69;5121555;28;19934;-60
2022/07/13 04:05:34;;;;;;;;;;;;;;;23.33;67.06;98571.31;5118360;28;19924;-60
2022/07/13 04:08:01;;;;;;;;;;;;;;;23.21;67.53;98582.13;5118127;28;19931;-60
2022/07/13 04:10:27;;;;;;;;;;;;;;;23.01;68.41;98578.22;5120030;28;19927;-60
2022/07/13 04:12:53;;;;;;;;;;;;;;;22.81;70.36;98587.91;5131772;28;19928;-60
2022/07/13 04:15:21;;;;;;;;;;;;;;;22.72;71.73;98578.97;5120392;28;19948;-59
2022/07/13 04:17:47;;;;;;;;;;;;;;;22.81;71.65;98589.84;5118148;28;19924;-59
2022/07/13 04:20:14;;;;;;;;;;;;;;;22.73;72.41;98577.06;5118192;28;20462;-60
2022/07/13 04:22:40;;;;;;;;;;;;;;;22.39;74.94;98572.47;5121521;28;19935;-60
2022/07/13 04:25:07;;;;;;;;;;;;;;;22.34;75.53;98567.22;5121421;28;19920;-60
2022/07/13 04:27:34;;;;;;;;;;;;;;;22.66;73.61;98571.28;5118483;28;19959;-60
2022/07/13 04:30:01;;;;;;;;;;;;;;;22.39;75.63;98567.03;5118026;28;19924;-59
2022/07/13 04:32:29;;;;;;;;;;;;;;;22.13;78.36;98575.22;5123190;28;19963;-60
2022/07/13 04:34:55;;;;;;;;;;;;;;;21.71;83.05;98573.31;5125405;28;19955;-60
2022/07/13 04:37:21;;;;;;;;;;;;;;;21.46;85.45;98564.81;5124100;28;19991;-61
2022/07/13 04:39:48;;;;;;;;;;;;;;;21.13;88.81;98573.69;5121996;28;19924;-59
2022/07/13 04:42:14;;;;;;;;;;;;;;;21.24;88.24;98573.06;5132324;27;19959;-60
2022/07/13 04:44:40;;;;;;;;;;;;;;;20.79;91.95;98579.78;5125046;28;20022;-59
2022/07/13 04:47:07;;;;;;;;;;;;;;;20.12;97.37;98581.75;5124974;28;19919;-59
2022/07/13 04:49:35;;;;;;;;;;;;;;;19.90;100.00;98579.81;5122223;28;19928;-59
2022/07/13 04:52:01;;;;;;;;;;;;;;;20.22;98.56;98576.88;5121702;28;19958;-59
2022/07/13 04:54:28;;;;;;;;;;;;;;;20.61;94.19;98573.44;5123917;28;19942;-60
2022/07/13 04:56:54;;;;;;;;;;;;;;;20.93;91.93;98564.97;5125037;28;19930;-60
2022/07/13 04:59:21;;;;;;;;;;;;;;;21.45;87.70;98576.78;5123731;28;19923;-59
2022/07/13 05:01:47;;;;;;;;;;;;;;;21.77;85.54;98572.03;5121187;28;19943;-60
2022/07/13 05:04:13;;;;;;;;;;;;;;;22.15;82.48;98569.47;5121289;28;19972;-60
2022/07/13 05:06:41;;;;;;;;;;;;;;;22.04;83.37;98566.28;5124882;28;19963;-60
2022/07/13 05:09:07;;;;;;;;;;;;;;;22.31;81.38;98560.47;5124622;28;19924;-59
2022/07/13 05:11:34;;;;;;;;;;;;;;;22.45;80.47;98566.53;5121667;28;19991;-59
2022/07/13 05:14:00;;;;;;;;;;;;;;;22.34;81.20;98562.56;5121026;28;19974;-60
2022/07/13 05:16:27;;;;;;;;;;;;;;;22.25;82.00;98561.75;5123465;28;19931;-61
2022/07/13 05:18:53;;;;;;;;;;;;;;;21.83;85.38;98570.75;5124618;28;19924;-60
2022/07/13 05:21:19;;;;;;;;;;;;;;;21.80;86.16;98572.19;5123397;28;19924;-60
2022/07/13 05:23:47;;;;;;;;;;;;;;;21.73;87.76;98565.63;5120828;28;19979;-60
2022/07/13 05:26:13;;;;;;;;;;;;;;;21.39;89.90;98550.09;5120609;28;19955;-61
2022/07/13 05:28:39;;;;;;;;;;;;;;;21.44;90.11;98552.66;5124208;28;19927;-60
2022/07/13 05:31:06;;;;;;;;;;;;;;;20.94;93.57;98544.84;5124133;28;19941;-61
2022/07/13 05:33:32;;;;;;;;;;;;;;;20.91;93.96;98550.13;5121443;28;19938;-61
2022/07/13 05:36:03;;;;;;;;;;;;;;;21.06;93.07;98546.97;5120515;28;19924;-60
2022/07/13 05:38:29;;;;;;;;;;;;;;;21.20;91.74;98544.94;5122800;28;19931;-60
2022/07/13 05:40:57;;;;;;;;;;;;;;;21.42;90.30;98542.09;5124177;28;19924;-60
2022/07/13 05:43:24;;;;;;;;;;;;;;;21.41;90.59;98564.19;5132942;27;19923;-61
2022/07/13 05:45:51;;;;;;;;;;;;;;;21.57;90.15;98567.22;5120476;28;20006;-60
2022/07/13 05:48:17;;;;;;;;;;;;;;;21.89;87.60;98572.22;5121274;28;19924;-60
2022/07/13 05:50:44;;;;;;;;;;;;;;;21.41;91.51;98577.75;5124157;28;19930;-61
2022/07/13 05:53:10;;;;;;;;;;;;;;;21.17;93.24;98570.00;5123743;28;19966;-60
2022/07/13 05:55:37;;;;;;;;;;;;;;;20.97;96.29;98573.28;5120354;28;19924;-60
2022/07/13 05:58:05;;;;;;;;;;;;;;;20.53;100.00;98574.22;5120299;28;19948;-61
2022/07/13 06:00:31;;;;;;;;;;;;;;;20.53;100.00;98570.69;5122678;28;19974;-60
2022/07/13 06:02:57;;;;;;;;;;;;;;;20.67;99.19;98571.41;5123448;28;19930;-61
2022/07/13 06:05:24;;;;;;;;;;;;;;;20.61;100.00;98578.09;5121869;28;19998;-59
2022/07/13 06:07:50;;;;;;;;;;;;;;;20.45;100.00;98569.56;5119831;28;19983;-60
2022/07/13 06:10:16;;;;;;;;;;;;;;;20.73;99.91;98564.75;5120669;28;19931;-59
2022/07/13 06:12:43;;;;;;;;;;;;;;;21.31;93.92;98565.28;5133768;27;20018;-60
2022/07/13 06:15:11;;;;;;;;;;;;;;;21.45;93.50;98565.13;5123374;28;19926;-59
2022/07/13 06:17:37;;;;;;;;;;;;;;;21.21;96.15;98562.84;5119989;28;19924;-60
2022/07/13 06:20:05;;;;;;;;;;;;;;;21.25;95.49;98568.44;5119734;28;20432;-60
2022/07/13 06:22:31;;;;;;;;;;;;;;;20.94;99.00;98571.22;5122227;28;19955;-60
2022/07/13 06:24:57;;;;;;;;;;;;;;;20.88;99.81;98573.28;5123154;28;19924;-60
2022/07/13 06:27:24;;;;;;;;;;;;;;;21.01;98.27;98572.34;5121475;28;19930;-60
2022/07/13 06:29:50;;;;;;;;;;;;;;;21.68;93.39;98573.94;5119677;28;19920;-60
2022/07/13 06:32:18;;;;;;;;;;;;;;;21.64;94.29;98562.91;5119929;28;19935;-60
2022/07/13 06:34:44;;;;;;;;;;;;;;;21.61;94.41;98560.81;5123082;28;19930;-60
2022/07/13 06:37:11;;;;;;;;;;;;;;;21.41;97.38;98564.19;5123000;28;20141;-59
2022/07/13 06:39:37;;;;;;;;;;;;;;;21.39;97.66;98558.22;5119414;28;19943;-60
2022/07/13 06:42:03;;;;;;;;;;;;;;;21.85;93.74;98573.97;5127172;27;20813;-60
2022/07/13 06:44:30;;;;;;;;;;;;;;;21.77;93.78;98572.03;5123835;28;19920;-60
2022/07/13 06:46:59;;;;;;;;;;;;;;;21.82;93.74;98569.94;5122626;28;19935;-59
2022/07/13 06:49:27;;;;;;;;;;;;;;;21.77;93.23;98570.13;5120773;28;19928;-60
2022/07/13 06:51:54;;;;;;;;;;;;;;;22.05;91.33;98578.78;5118941;28;19934;-60
2022/07/13 06:54:21;;;;;;;;;;;;;;;21.87;92.20;98574.44;5119808;28;19924;-60
2022/07/13 06:56:47;;;;;;;;;;;;;;;21.95;92.38;98570.94;5122525;28;19987;-60
2022/07/13 06:59:13;;;;;;;;;;;;;;;22.46;88.93;98561.91;5122396;28;20249;-60
2022/07/13 07:01:40;;;;;;;;;;;;;;;22.14;90.63;98560.53;5118906;28;19993;-59
2022/07/13 07:04:06;;;;;;;;;;;;;;;22.11;91.89;98550.28;5118914;28;19924;-60
2022/07/13 07:06:34;;;;;;;;;;;;;;;22.28;90.60;98544.03;5121597;28;19928;-59
2022/07/13 07:09:00;;;;;;;;;;;;;;;23.05;86.42;98543.75;5122192;28;19926;-59
2022/07/13 07:11:27;;;;;;;;;;;;;;;22.98;86.45;98530.66;5120144;28;19920;-60
2022/07/13 07:13:53;;;;;;;;;;;;;;;22.54;90.05;98537.38;5129154;27;19940;-61
2022/07/13 07:16:19;;;;;;;;;;;;;;;22.75;89.43;98533.94;5119562;28;19924;-61
2022/07/13 07:18:46;;;;;;;;;;;;;;;22.76;89.05;98535.56;5122309;28;19928;-60
2022/07/13 07:21:12;;;;;;;;;;;;;;;22.49;90.26;98547.63;5138101;27;19928;-61
2022/07/13 07:23:40;;;;;;;;;;;;;;;22.74;89.97;98551.44;5110076;28;19927;-60
2022/07/13 07:26:06;;;;;;;;;;;;;;;22.89;88.42;98542.72;5110227;28;19935;-61
2022/07/13 07:28:33;;;;;;;;;;;;;;;23.07;87.10;98538.75;5110138;28;19960;-60
2022/07/13 07:30:59;;;;;;;;;;;;;;;23.21;85.91;98544.75;5110138;28;19924;-60
2022/07/13 07:33:25;;;;;;;;;;;;;;;23.59;84.01;98555.59;5110036;28;19928;-60
2022/07/13 07:35:52;;;;;;;;;;;;;;;23.80;81.91;98552.91;5110121;28;19921;-60
2022/07/13 07:38:18;;;;;;;;;;;;;;;23.71;81.35;98546.69;5109858;28;19924;-59
2022/07/13 07:40:46;;;;;;;;;;;;;;;23.72;80.26;98548.28;5109915;28;19951;-60
2022/07/13 07:43:12;;;;;;;;;;;;;;;23.77;80.96;98543.44;5128719;27;19936;-60
2022/07/13 07:45:38;;;;;;;;;;;;;;;23.56;80.34;98545.38;5109582;28;19943;-60
2022/07/13 07:48:05;;;;;;;;;;;;;;;23.51;81.88;98543.66;5109671;28;19951;-59
2022/07/13 07:50:31;;;;;;;;;;;;;;;23.54;81.40;98542.97;5109623;28;19924;-59
2022/07/13 07:52:58;;;;;;;;;;;;;;;23.74;80.18;98537.88;5109827;28;19935;-59
2022/07/13 07:55:24;;;;;;;;;;;;;;;24.05;79.04;98540.94;5109629;28;19928;-59
2022/07/13 07:57:52;;;;;;;;;;;;;;;24.37;76.89;98531.97;5109794;28;19954;-60
2022/07/13 08:00:19;;;;;;;;;;;;;;;24.77;75.95;98536.81;5109676;28;19924;-59
2022/07/13 08:02:45;;;;;;;;;;;;;;;25.15;73.53;98529.09;5109471;28;20015;-60
2022/07/13 08:05:14;;;;;;;;;;;;;;;24.99;71.38;98531.72;5109127;28;19935;-59
2022/07/13 08:07:42;;;;;;;;;;;;;;;25.01;71.30;98528.63;5121859;28;20013;-60
2022/07/13 08:10:09;;;;;;;;;;;;;;;24.82;72.36;98525.69;5122361;28;19931;-60
2022/07/13 08:12:35;;;;;;;;;;;;;;;24.58;72.47;98521.75;5136044;27;19923;-60
2022/07/13 08:15:03;;;;;;;;;;;;;;;24.55;73.91;98511.53;5125695;28;19924;-60
2022/07/13 08:17:29;;;;;;;;;;;;;;;24.54;73.06;98515.38;5123329;28;19920;-59
2022/07/13 08:19:56;;;;;;;;;;;;;;;24.93;72.76;98513.16;5122151;28;19935;-60
2022/07/13 08:22:22;;;;;;;;;;;;;;;24.98;69.97;98507.47;5123510;28;19969;-61
2022/07/13 08:24:48;;;;;;;;;;;;;;;24.86;71.09;98511.00;5125501;28;19923;-60
2022/07/13 08:27:15;;;;;;;;;;;;;;;24.91;70.97;98510.78;5125099;28;19924;-60
2022/07/13 08:29:42;;;;;;;;;;;;;;;24.96;71.32;98516.00;5122039;28;19924;-60
2022/07/13 08:32:10;;;;;;;;;;;;;;;24.98;71.44;98515.66;5121845;28;19924;-60
2022/07/13 08:40:08;;;;;;;;;;;;;;;25.39;68.68;98496.25;5121653;28;19995;-60
2022/07/13 08:42:35;;;;;;;;;;;;;;;25.39;66.75;98501.72;5135299;27;19991;-59
2022/07/13 08:45:01;;;;;;;;;;;;;;;25.59;64.69;98498.03;5125001;28;19959;-60
2022/07/13 08:47:30;;;;;;;;;;;;;;;25.78;63.94;98498.19;5123088;28;20445;-60
2022/07/13 08:49:58;;;;;;;;;;;;;;;25.93;63.27;98493.13;5103394;28;19946;-61
2022/07/13 08:52:25;;;;;;;;;;;;;;;26.16;62.33;98478.53;5123178;28;19920;-60
2022/07/13 08:54:52;;;;;;;;;;;;;;;26.27;63.10;98476.84;5125110;28;19927;-60
2022/07/13 08:57:19;;;;;;;;;;;;;;;26.43;59.17;98481.56;5124291;28;20098;-60
2022/07/13 08:59:46;;;;;;;;;;;;;;;26.57;58.17;98484.66;5121444;28;20502;-60
2022/07/13 09:02:12;;;;;;;;;;;;;;;26.39;57.09;98478.75;5121344;28;19987;-61
2022/07/13 09:04:41;;;;;;;;;;;;;;;26.46;58.04;98476.16;5112672;28;20031;-61
2022/07/13 09:07:10;;;;;;;;;;;;;;;26.43;56.87;98470.63;5112449;28;19924;-59
2022/07/13 09:09:36;;;;;;;;;;;;;;;26.36;56.96;98484.94;5112631;28;19924;-61
2022/07/13 09:12:16;;;;;;;;;;;;;;;26.45;56.12;98477.34;5120430;27;19930;-60
2022/07/13 09:14:44;;;;;;;;;;;;;;;26.41;56.48;98476.44;5121016;28;19924;-59
2022/07/13 09:17:19;;;;;;;;;;;;;;;26.49;55.49;98472.72;5120289;28;20037;-60
2022/07/13 09:19:47;;;;;;;;;;;;;;;26.72;54.87;98467.41;5112465;28;19935;-60
2022/07/13 09:22:14;;;;;;;;;;;;;;;26.66;54.91;98466.88;5112374;28;19970;-59
2022/07/13 09:24:44;;;;;;;;;;;;;;;26.56;56.42;98467.41;5112279;28;19928;-60
2022/07/13 09:27:11;;;;;;;;;;;;;;;26.60;56.98;98465.56;5102711;28;19930;-60
2022/07/13 09:29:37;;;;;;;;;;;;;;;26.74;56.58;98448.66;5112219;28;19925;-60
2022/07/13 09:32:06;;;;;;;;;;;;;;;26.71;56.59;98463.06;5112197;28;20398;-61
2022/07/13 09:34:46;;;;;;;;;;;;;;;27.02;53.69;98452.09;5123653;28;19996;-61
2022/07/13 09:37:15;;;;;;;;;;;;;;;26.98;55.17;98456.72;5124468;28;19924;-61
2022/07/13 09:39:55;;;;;;;;;;;;;;;27.13;55.28;98455.06;5112464;28;19925;-61
2022/07/13 09:42:25;;;;;;;;;;;;;;;27.36;54.15;98459.50;5123993;27;19966;-60
2022/07/13 09:47:40;;;;;;;;;;;;;;;27.65;53.21;98463.66;5120563;28;19924;-60
2022/07/13 09:50:07;;;;;;;;;;;;;;;27.63;52.31;98459.69;5120358;28;19956;-61
2022/07/13 09:52:35;;;;;;;;;;;;;;;27.62;51.77;98467.13;5123421;28;19928;-61
2022/07/13 09:55:04;;;;;;;;;;;;;;;27.44;53.30;98468.72;5123777;28;19928;-61
2022/07/13 09:57:32;;;;;;;;;;;;;;;27.43;53.00;98456.16;5121337;28;19924;-61
2022/07/13 09:59:59;;;;;;;;;;;;;;;27.63;52.05;98459.69;5120395;28;19967;-60
2022/07/13 10:02:26;;;;;;;;;;;;;;;27.59;53.11;98453.34;5121765;28;19924;-61
2022/07/13 10:04:53;;;;;;;;;;;;;;;27.87;51.40;98449.19;5123692;28;19927;-60
2022/07/13 10:07:20;;;;;;;;;;;;;;;27.52;52.50;98442.22;5122354;28;19949;-61
2022/07/13 10:09:48;;;;;;;;;;;;;;;27.54;52.59;98443.47;5120045;28;19955;-61
2022/07/13 10:12:14;;;;;;;;;;;;;;;27.82;50.85;98446.72;5130696;27;19923;-61
2022/07/13 10:14:41;;;;;;;;;;;;;;;27.79;51.66;98457.66;5123348;28;19962;-61
2022/07/13 10:17:10;;;;;;;;;;;;;;;27.60;52.29;98454.94;5123381;28;19931;-61
2022/07/13 10:19:43;;;;;;;;;;;;;;;27.51;52.15;98452.41;5120187;28;20511;-61
2022/07/13 10:22:11;;;;;;;;;;;;;;;27.76;50.46;98453.69;5119689;28;19966;-62
2022/07/13 10:24:39;;;;;;;;;;;;;;;28.01;49.21;98450.63;5123131;28;19930;-61
2022/07/13 10:27:22;;;;;;;;;;;;;;;27.82;49.15;98452.22;5123254;28;19972;-61
2022/07/13 10:29:50;;;;;;;;;;;;;;;28.21;46.09;98449.44;5118858;28;19928;-62
2022/07/13 10:32:17;;;;;;;;;;;;;;;28.08;48.29;98453.50;5119953;28;19935;-62
2022/07/13 10:34:50;;;;;;;;;;;;;;;27.83;49.78;98453.81;5123202;28;20018;-62
2022/07/13 10:37:16;;;;;;;;;;;;;;;28.00;49.08;98455.31;5122539;28;20074;-61
2022/07/13 10:40:04;;;;;;;;;;;;;;;27.99;49.87;98461.16;5119491;28;19931;-62
2022/07/13 10:42:52;;;;;;;;;;;;;;;27.96;50.51;98451.72;5132346;27;19924;-61
2022/07/13 10:45:39;;;;;;;;;;;;;;;28.18;49.38;98447.44;5122176;28;19924;-61
2022/07/13 10:48:07;;;;;;;;;;;;;;;28.35;47.78;98446.94;5119228;28;19924;-61
2022/07/13 10:50:39;;;;;;;;;;;;;;;28.28;49.77;98452.31;5122105;28;19927;-63
2022/07/13 10:53:06;;;;;;;;;;;;;;;28.41;47.23;98459.19;5122681;28;19924;-62
2022/07/13 10:55:34;;;;;;;;;;;;;;;28.45;46.95;98448.28;5119992;28;20043;-61
2022/07/13 10:58:22;;;;;;;;;;;;;;;28.26;47.79;98432.66;5119168;28;19966;-61
2022/07/13 11:00:49;;;;;;;;;;;;;;;28.13;49.74;98439.50;5118719;28;19924;-60
2022/07/13 11:03:28;;;;;;;;;;;;;;;28.29;50.62;98429.97;5119070;28;19924;-60
2022/07/13 11:06:05;;;;;;;;;;;;;;;28.04;50.58;98425.19;5122047;28;20009;-60
2022/07/13 11:08:31;;;;;;;;;;;;;;;28.38;49.71;98430.50;5119564;28;19919;-61
2022/07/13 11:11:09;;;;;;;;;;;;;;;28.39;47.28;98434.84;5118679;28;19924;-61
2022/07/13 11:13:37;;;;;;;;;;;;;;;28.45;46.34;98429.84;5132553;27;19924;-64
2022/07/13 11:16:03;;;;;;;;;;;;;;;28.62;46.78;98418.34;5118554;28;19970;-62
2022/07/13 11:18:31;;;;;;;;;;;;;;;28.79;44.92;98420.59;5120954;28;19928;-61
2022/07/13 11:20:59;;;;;;;;;;;;;;;29.02;43.51;98415.03;5122135;28;19924;-61
2022/07/13 11:26:13;;;;;;;;;;;;;;;29.23;41.43;98411.75;5118403;28;19924;-61
2022/07/13 11:28:46;;;;;;;;;;;;;;;29.31;41.55;98406.00;5118456;28;19962;-60
2022/07/13 11:31:13;;;;;;;;;;;;;;;29.31;42.18;98410.72;5118377;28;19924;-61
2022/07/13 11:33:48;;;;;;;;;;;;;;;29.36;42.26;98407.66;5118525;28;19959;-60
2022/07/13 11:36:14;;;;;;;;;;;;;;;28.97;44.46;98407.09;5118482;28;19984;-61
2022/07/13 11:38:41;;;;;;;;;;;;;;;28.72;44.90;98395.72;5121909;28;19981;-62
2022/07/13 11:41:07;;;;;;;;;;;;;;;28.83;45.26;98402.19;5121675;28;19924;-61
2022/07/13 11:43:33;;;;;;;;;;;;;;;29.00;44.77;98400.84;5129705;27;19935;-60
2022/07/13 11:46:01;;;;;;;;;;;;;;;29.03;44.94;98400.09;5118279;28;20102;-62
2022/07/13 11:48:32;;;;;;;;;;;;;;;28.92;44.12;98397.22;5120528;28;19946;-60
2022/07/13 11:50:58;;;;;;;;;;;;;;;28.57;46.74;98396.66;5122006;28;19931;-61
2022/07/13 11:53:26;;;;;;;;;;;;;;;28.53;47.40;98393.09;5120410;28;19951;-60
2022/07/13 11:55:54;;;;;;;;;;;;;;;28.65;46.57;98389.34;5118451;28;19936;-61
2022/07/13 11:58:21;;;;;;;;;;;;;;;28.46;47.30;98392.97;5119164;28;19935;-60
2022/07/13 12:00:47;;;;;;;;;;;;;;;28.67;46.92;98393.31;5121813;28;19930;-60
2022/07/13 12:03:15;;;;;;;;;;;;;;;28.62;46.90;98388.13;5121457;28;19959;-61
2022/07/13 12:05:43;;;;;;;;;;;;;;;28.58;46.69;98384.50;5117810;28;19952;-60
2022/07/13 12:08:11;;;;;;;;;;;;;;;28.42;46.95;98375.63;5117849;28;19931;-60
2022/07/13 12:10:38;;;;;;;;;;;;;;;28.51;46.87;98376.16;5121155;28;19968;-60
2022/07/13 12:13:04;;;;;;;;;;;;;;;28.65;46.52;98368.16;5132306;27;19946;-61
2022/07/13 12:15:30;;;;;;;;;;;;;;;28.47;46.38;98369.84;5119140;28;19955;-61
2022/07/13 12:17:58;;;;;;;;;;;;;;;28.64;45.84;98361.03;5117951;28;19920;-60
2022/07/13 12:20:26;;;;;;;;;;;;;;;28.39;46.87;98368.13;5119515;28;19924;-61
2022/07/13 12:22:53;;;;;;;;;;;;;;;28.72;45.62;98360.00;5121363;28;19955;-60
2022/07/13 12:25:23;;;;;;;;;;;;;;;29.06;44.24;98362.84;5120444;28;19963;-61
2022/07/13 12:27:51;;;;;;;;;;;;;;;29.25;41.79;98357.97;5117929;28;19932;-60
2022/07/13 12:30:17;;;;;;;;;;;;;;;29.07;42.30;98361.66;5118449;28;19949;-60
2022/07/13 12:32:57;;;;;;;;;;;;;;;28.82;44.94;98345.63;5121447;28;19931;-60
2022/07/13 12:35:26;;;;;;;;;;;;;;;29.23;42.46;98338.28;5119827;28;19946;-60
2022/07/13 12:37:53;;;;;;;;;;;;;;;28.82;44.33;98325.56;5117737;28;19928;-59
2022/07/13 12:40:39;;;;;;;;;;;;;;;29.15;43.82;98324.84;5118545;28;19924;-60
2022/07/13 12:43:06;;;;;;;;;;;;;;;28.88;45.48;98329.59;5131852;28;19923;-60
2022/07/13 12:45:32;;;;;;;;;;;;;;;28.86;45.97;98324.47;5118484;28;19924;-60
2022/07/13 12:47:59;;;;;;;;;;;;;;;28.93;45.80;98338.31;5117631;28;19928;-61
2022/07/13 12:50:30;;;;;;;;;;;;;;;28.95;45.73;98329.69;5118992;28;19951;-61
2022/07/13 12:53:00;;;;;;;;;;;;;;;28.99;45.95;98326.97;5123140;28;20042;-61
2022/07/13 12:55:27;;;;;;;;;;;;;;;29.04;45.73;98321.16;5123010;28;19920;-60
2022/07/13 12:57:53;;;;;;;;;;;;;;;29.30;45.32;98321.09;5121390;28;19935;-61